sensor_id;sensor_type;location;lat;lon;timestamp;P1;durP1;ratioP1;P2;durP2;ratioP2
37459;SDS011;23318;50.966;5.284;2022-10-28T00:00:22;15.80;;;4.45;;
37459;SDS011;23318;50.966;5.284;2022-10-28T00:02:48;16.50;;;5.07;;
37459;SDS011;23318;50.966;5.284;2022-10-28T00:05:14;10.18;;;4.55;;
37459;SDS011;23318;50.966;5.284;2022-10-28T00:07:39;16.98;;;4.50;;
37459;SDS011;23318;50.966;5.284;2022-10-28T00:10:05;16.98;;;4.95;;
37459;SDS011;23318;50.966;5.284;2022-10-28T00:12:35;13.38;;;6.18;;
37459;SDS011;23318;50.966;5.284;2022-10-28T00:15:02;11.88;;;4.65;;
37459;SDS011;23318;50.966;5.284;2022-10-28T00:17:28;16.45;;;4.72;;
37459;SDS011;23318;50.966;5.284;2022-10-28T00:19:54;16.17;;;5.13;;
37459;SDS011;23318;50.966;5.284;2022-10-28T00:22:20;15.23;;;4.88;;
37459;SDS011;23318;50.966;5.284;2022-10-28T00:24:46;14.20;;;4.20;;
37459;SDS011;23318;50.966;5.284;2022-10-28T00:27:11;14.73;;;4.65;;
37459;SDS011;23318;50.966;5.284;2022-10-28T00:29:37;17.75;;;4.22;;
37459;SDS011;23318;50.966;5.284;2022-10-28T00:32:02;13.95;;;4.53;;
37459;SDS011;23318;50.966;5.284;2022-10-28T00:34:28;17.65;;;5.47;;
37459;SDS011;23318;50.966;5.284;2022-10-28T00:36:54;16.58;;;5.30;;
37459;SDS011;23318;50.966;5.284;2022-10-28T00:39:21;12.77;;;4.85;;
37459;SDS011;23318;50.966;5.284;2022-10-28T00:41:49;15.75;;;5.60;;
37459;SDS011;23318;50.966;5.284;2022-10-28T00:53:11;14.98;;;4.82;;
37459;SDS011;23318;50.966;5.284;2022-10-28T00:55:41;14.27;;;4.38;;
37459;SDS011;23318;50.966;5.284;2022-10-28T00:58:08;18.55;;;4.97;;
37459;SDS011;23318;50.966;5.284;2022-10-28T01:00:35;17.63;;;5.68;;
37459;SDS011;23318;50.966;5.284;2022-10-28T01:03:01;19.42;;;5.18;;
37459;SDS011;23318;50.966;5.284;2022-10-28T01:05:27;15.30;;;4.65;;
37459;SDS011;23318;50.966;5.284;2022-10-28T01:07:57;17.15;;;5.13;;
37459;SDS011;23318;50.966;5.284;2022-10-28T01:10:27;12.77;;;4.40;;
37459;SDS011;23318;50.966;5.284;2022-10-28T01:13:00;13.38;;;4.50;;
37459;SDS011;23318;50.966;5.284;2022-10-28T01:15:52;15.80;;;4.65;;
37459;SDS011;23318;50.966;5.284;2022-10-28T01:32:13;14.45;;;5.20;;
37459;SDS011;23318;50.966;5.284;2022-10-28T01:37:31;14.45;;;4.53;;
37459;SDS011;23318;50.966;5.284;2022-10-28T01:40:10;18.75;;;4.68;;
37459;SDS011;23318;50.966;5.284;2022-10-28T01:42:43;18.23;;;4.70;;
37459;SDS011;23318;50.966;5.284;2022-10-28T01:48:05;17.13;;;4.93;;
37459;SDS011;23318;50.966;5.284;2022-10-28T01:53:11;14.00;;;5.00;;
37459;SDS011;23318;50.966;5.284;2022-10-28T01:55:41;17.83;;;4.88;;
37459;SDS011;23318;50.966;5.284;2022-10-28T01:58:11;17.35;;;4.63;;
37459;SDS011;23318;50.966;5.284;2022-10-28T02:00:39;12.80;;;4.75;;
37459;SDS011;23318;50.966;5.284;2022-10-28T02:03:07;15.77;;;4.85;;
37459;SDS011;23318;50.966;5.284;2022-10-28T02:05:35;16.48;;;4.35;;
37459;SDS011;23318;50.966;5.284;2022-10-28T02:10:55;24.55;;;5.55;;
37459;SDS011;23318;50.966;5.284;2022-10-28T02:19:13;13.70;;;4.47;;
37459;SDS011;23318;50.966;5.284;2022-10-28T02:27:24;17.50;;;5.13;;
37459;SDS011;23318;50.966;5.284;2022-10-28T02:30:06;13.43;;;4.82;;
37459;SDS011;23318;50.966;5.284;2022-10-28T02:32:37;11.57;;;4.47;;
37459;SDS011;23318;50.966;5.284;2022-10-28T02:35:09;14.77;;;5.10;;
37459;SDS011;23318;50.966;5.284;2022-10-28T02:37:40;17.40;;;4.40;;
37459;SDS011;23318;50.966;5.284;2022-10-28T02:40:10;14.15;;;4.53;;
37459;SDS011;23318;50.966;5.284;2022-10-28T02:42:40;13.55;;;4.13;;
37459;SDS011;23318;50.966;5.284;2022-10-28T02:45:11;15.38;;;4.40;;
37459;SDS011;23318;50.966;5.284;2022-10-28T02:47:43;16.88;;;4.68;;
37459;SDS011;23318;50.966;5.284;2022-10-28T02:50:20;16.10;;;4.25;;
37459;SDS011;23318;50.966;5.284;2022-10-28T02:52:49;14.32;;;4.75;;
37459;SDS011;23318;50.966;5.284;2022-10-28T02:55:19;14.93;;;4.80;;
37459;SDS011;23318;50.966;5.284;2022-10-28T02:57:48;14.55;;;4.63;;
37459;SDS011;23318;50.966;5.284;2022-10-28T03:00:15;16.27;;;5.15;;
37459;SDS011;23318;50.966;5.284;2022-10-28T03:02:43;11.43;;;4.57;;
37459;SDS011;23318;50.966;5.284;2022-10-28T03:05:09;22.55;;;5.00;;
37459;SDS011;23318;50.966;5.284;2022-10-28T03:07:35;15.68;;;4.90;;
37459;SDS011;23318;50.966;5.284;2022-10-28T03:10:01;10.40;;;4.25;;
37459;SDS011;23318;50.966;5.284;2022-10-28T03:12:27;17.60;;;4.38;;
37459;SDS011;23318;50.966;5.284;2022-10-28T03:14:52;14.10;;;4.22;;
37459;SDS011;23318;50.966;5.284;2022-10-28T03:17:18;11.15;;;4.70;;
37459;SDS011;23318;50.966;5.284;2022-10-28T03:19:43;18.27;;;5.22;;
37459;SDS011;23318;50.966;5.284;2022-10-28T03:22:09;14.02;;;4.57;;
37459;SDS011;23318;50.966;5.284;2022-10-28T03:24:34;12.80;;;4.95;;
37459;SDS011;23318;50.966;5.284;2022-10-28T03:27:00;11.63;;;4.70;;
37459;SDS011;23318;50.966;5.284;2022-10-28T03:29:26;13.77;;;4.78;;
37459;SDS011;23318;50.966;5.284;2022-10-28T03:31:51;13.13;;;4.40;;
37459;SDS011;23318;50.966;5.284;2022-10-28T03:34:17;20.63;;;5.82;;
37459;SDS011;23318;50.966;5.284;2022-10-28T03:36:42;13.63;;;5.03;;
37459;SDS011;23318;50.966;5.284;2022-10-28T03:39:08;24.23;;;5.25;;
37459;SDS011;23318;50.966;5.284;2022-10-28T03:41:34;19.67;;;4.28;;
37459;SDS011;23318;50.966;5.284;2022-10-28T03:43:59;21.02;;;5.03;;
37459;SDS011;23318;50.966;5.284;2022-10-28T03:46:25;11.60;;;4.80;;
37459;SDS011;23318;50.966;5.284;2022-10-28T03:48:51;12.63;;;4.68;;
37459;SDS011;23318;50.966;5.284;2022-10-28T03:51:16;16.88;;;5.10;;
37459;SDS011;23318;50.966;5.284;2022-10-28T03:53:42;21.35;;;5.20;;
37459;SDS011;23318;50.966;5.284;2022-10-28T03:56:12;17.77;;;5.07;;
37459;SDS011;23318;50.966;5.284;2022-10-28T03:58:37;16.83;;;5.10;;
37459;SDS011;23318;50.966;5.284;2022-10-28T04:01:03;13.48;;;4.80;;
37459;SDS011;23318;50.966;5.284;2022-10-28T04:03:29;21.75;;;5.75;;
37459;SDS011;23318;50.966;5.284;2022-10-28T04:05:54;15.27;;;4.72;;
37459;SDS011;23318;50.966;5.284;2022-10-28T04:08:20;22.27;;;5.47;;
37459;SDS011;23318;50.966;5.284;2022-10-28T04:10:46;18.77;;;5.25;;
37459;SDS011;23318;50.966;5.284;2022-10-28T04:13:12;22.73;;;5.50;;
37459;SDS011;23318;50.966;5.284;2022-10-28T04:15:38;20.90;;;5.40;;
37459;SDS011;23318;50.966;5.284;2022-10-28T04:18:04;14.25;;;5.45;;
37459;SDS011;23318;50.966;5.284;2022-10-28T04:20:30;20.60;;;5.63;;
37459;SDS011;23318;50.966;5.284;2022-10-28T04:22:56;17.80;;;4.80;;
37459;SDS011;23318;50.966;5.284;2022-10-28T04:25:23;16.52;;;5.03;;
37459;SDS011;23318;50.966;5.284;2022-10-28T04:27:50;18.45;;;5.47;;
37459;SDS011;23318;50.966;5.284;2022-10-28T04:30:16;19.30;;;5.85;;
37459;SDS011;23318;50.966;5.284;2022-10-28T04:32:42;18.23;;;5.75;;
37459;SDS011;23318;50.966;5.284;2022-10-28T04:35:09;19.00;;;5.47;;
37459;SDS011;23318;50.966;5.284;2022-10-28T04:37:36;15.35;;;4.88;;
37459;SDS011;23318;50.966;5.284;2022-10-28T04:40:02;17.73;;;5.63;;
37459;SDS011;23318;50.966;5.284;2022-10-28T04:42:29;15.20;;;4.72;;
37459;SDS011;23318;50.966;5.284;2022-10-28T04:44:54;17.98;;;5.15;;
37459;SDS011;23318;50.966;5.284;2022-10-28T04:47:20;14.68;;;4.97;;
37459;SDS011;23318;50.966;5.284;2022-10-28T04:49:46;15.40;;;5.10;;
37459;SDS011;23318;50.966;5.284;2022-10-28T04:52:12;17.25;;;5.85;;
37459;SDS011;23318;50.966;5.284;2022-10-28T04:54:37;20.42;;;5.47;;
37459;SDS011;23318;50.966;5.284;2022-10-28T04:57:04;16.85;;;4.47;;
37459;SDS011;23318;50.966;5.284;2022-10-28T04:59:30;16.88;;;5.53;;
37459;SDS011;23318;50.966;5.284;2022-10-28T05:01:56;16.98;;;5.75;;
37459;SDS011;23318;50.966;5.284;2022-10-28T05:04:22;17.20;;;5.57;;
37459;SDS011;23318;50.966;5.284;2022-10-28T05:06:47;18.42;;;5.65;;
37459;SDS011;23318;50.966;5.284;2022-10-28T05:09:13;16.80;;;5.38;;
37459;SDS011;23318;50.966;5.284;2022-10-28T05:11:39;15.38;;;5.40;;
37459;SDS011;23318;50.966;5.284;2022-10-28T05:14:04;15.50;;;5.43;;
37459;SDS011;23318;50.966;5.284;2022-10-28T05:16:30;20.13;;;6.68;;
37459;SDS011;23318;50.966;5.284;2022-10-28T05:18:56;17.90;;;5.75;;
37459;SDS011;23318;50.966;5.284;2022-10-28T05:21:22;16.30;;;5.65;;
37459;SDS011;23318;50.966;5.284;2022-10-28T05:23:48;14.02;;;5.72;;
37459;SDS011;23318;50.966;5.284;2022-10-28T05:26:13;17.42;;;6.32;;
37459;SDS011;23318;50.966;5.284;2022-10-28T05:28:39;14.60;;;5.10;;
37459;SDS011;23318;50.966;5.284;2022-10-28T05:31:05;19.45;;;5.55;;
37459;SDS011;23318;50.966;5.284;2022-10-28T05:33:31;18.83;;;5.60;;
37459;SDS011;23318;50.966;5.284;2022-10-28T05:35:58;14.85;;;5.05;;
37459;SDS011;23318;50.966;5.284;2022-10-28T05:38:24;15.40;;;5.53;;
37459;SDS011;23318;50.966;5.284;2022-10-28T05:40:50;17.52;;;5.65;;
37459;SDS011;23318;50.966;5.284;2022-10-28T05:43:16;16.63;;;5.60;;
37459;SDS011;23318;50.966;5.284;2022-10-28T05:45:42;14.77;;;5.53;;
37459;SDS011;23318;50.966;5.284;2022-10-28T05:48:07;16.85;;;6.10;;
37459;SDS011;23318;50.966;5.284;2022-10-28T05:50:33;17.83;;;6.00;;
37459;SDS011;23318;50.966;5.284;2022-10-28T05:52:59;15.02;;;5.18;;
37459;SDS011;23318;50.966;5.284;2022-10-28T05:55:25;15.70;;;5.95;;
37459;SDS011;23318;50.966;5.284;2022-10-28T05:57:53;17.58;;;5.85;;
37459;SDS011;23318;50.966;5.284;2022-10-28T06:00:20;24.75;;;6.22;;
37459;SDS011;23318;50.966;5.284;2022-10-28T06:02:47;19.20;;;5.40;;
37459;SDS011;23318;50.966;5.284;2022-10-28T06:05:13;18.20;;;6.68;;
37459;SDS011;23318;50.966;5.284;2022-10-28T06:07:40;18.75;;;6.10;;
37459;SDS011;23318;50.966;5.284;2022-10-28T06:10:06;22.02;;;6.22;;
37459;SDS011;23318;50.966;5.284;2022-10-28T06:12:33;14.95;;;5.70;;
37459;SDS011;23318;50.966;5.284;2022-10-28T06:14:59;19.48;;;5.75;;
37459;SDS011;23318;50.966;5.284;2022-10-28T06:17:25;13.88;;;5.90;;
37459;SDS011;23318;50.966;5.284;2022-10-28T06:19:51;20.23;;;6.18;;
37459;SDS011;23318;50.966;5.284;2022-10-28T06:22:16;15.80;;;5.82;;
37459;SDS011;23318;50.966;5.284;2022-10-28T06:24:42;25.48;;;6.45;;
37459;SDS011;23318;50.966;5.284;2022-10-28T06:27:08;17.83;;;5.57;;
37459;SDS011;23318;50.966;5.284;2022-10-28T06:29:34;15.82;;;5.57;;
37459;SDS011;23318;50.966;5.284;2022-10-28T06:32:00;22.08;;;6.20;;
37459;SDS011;23318;50.966;5.284;2022-10-28T06:34:25;17.23;;;5.82;;
37459;SDS011;23318;50.966;5.284;2022-10-28T06:36:51;19.73;;;6.32;;
37459;SDS011;23318;50.966;5.284;2022-10-28T06:39:17;37.35;;;8.63;;
37459;SDS011;23318;50.966;5.284;2022-10-28T06:41:43;34.50;;;7.60;;
37459;SDS011;23318;50.966;5.284;2022-10-28T06:44:08;34.90;;;8.52;;
37459;SDS011;23318;50.966;5.284;2022-10-28T06:46:34;49.55;;;10.40;;
37459;SDS011;23318;50.966;5.284;2022-10-28T06:49:00;43.15;;;10.15;;
37459;SDS011;23318;50.966;5.284;2022-10-28T06:51:27;42.53;;;8.50;;
37459;SDS011;23318;50.966;5.284;2022-10-28T06:53:53;29.08;;;8.07;;
37459;SDS011;23318;50.966;5.284;2022-10-28T06:56:19;21.33;;;6.63;;
37459;SDS011;23318;50.966;5.284;2022-10-28T06:58:48;30.77;;;7.43;;
37459;SDS011;23318;50.966;5.284;2022-10-28T07:01:15;31.50;;;6.95;;
37459;SDS011;23318;50.966;5.284;2022-10-28T07:03:40;21.23;;;6.10;;
37459;SDS011;23318;50.966;5.284;2022-10-28T07:06:06;19.27;;;6.40;;
37459;SDS011;23318;50.966;5.284;2022-10-28T07:08:32;23.23;;;6.53;;
37459;SDS011;23318;50.966;5.284;2022-10-28T07:10:58;23.38;;;6.95;;
37459;SDS011;23318;50.966;5.284;2022-10-28T07:13:24;26.45;;;6.90;;
37459;SDS011;23318;50.966;5.284;2022-10-28T07:15:54;17.92;;;6.65;;
37459;SDS011;23318;50.966;5.284;2022-10-28T07:18:22;14.32;;;5.70;;
37459;SDS011;23318;50.966;5.284;2022-10-28T07:20:49;22.30;;;6.70;;
37459;SDS011;23318;50.966;5.284;2022-10-28T07:23:14;23.33;;;5.60;;
37459;SDS011;23318;50.966;5.284;2022-10-28T07:25:40;20.25;;;6.05;;
37459;SDS011;23318;50.966;5.284;2022-10-28T07:28:06;19.75;;;6.05;;
37459;SDS011;23318;50.966;5.284;2022-10-28T07:30:32;15.10;;;6.30;;
37459;SDS011;23318;50.966;5.284;2022-10-28T07:32:57;16.90;;;6.55;;
37459;SDS011;23318;50.966;5.284;2022-10-28T07:35:28;21.15;;;6.07;;
37459;SDS011;23318;50.966;5.284;2022-10-28T07:37:55;19.33;;;6.13;;
37459;SDS011;23318;50.966;5.284;2022-10-28T07:40:21;17.80;;;5.30;;
37459;SDS011;23318;50.966;5.284;2022-10-28T07:42:48;16.83;;;5.90;;
37459;SDS011;23318;50.966;5.284;2022-10-28T07:45:14;18.33;;;6.78;;
37459;SDS011;23318;50.966;5.284;2022-10-28T07:47:40;19.95;;;7.30;;
37459;SDS011;23318;50.966;5.284;2022-10-28T07:50:06;23.52;;;5.75;;
37459;SDS011;23318;50.966;5.284;2022-10-28T07:52:33;20.85;;;6.80;;
37459;SDS011;23318;50.966;5.284;2022-10-28T07:54:59;20.27;;;6.60;;
37459;SDS011;23318;50.966;5.284;2022-10-28T07:57:26;19.98;;;5.90;;
37459;SDS011;23318;50.966;5.284;2022-10-28T07:59:51;18.90;;;6.88;;
37459;SDS011;23318;50.966;5.284;2022-10-28T08:02:18;22.67;;;6.13;;
37459;SDS011;23318;50.966;5.284;2022-10-28T08:04:45;18.70;;;5.15;;
37459;SDS011;23318;50.966;5.284;2022-10-28T08:07:11;18.67;;;6.05;;
37459;SDS011;23318;50.966;5.284;2022-10-28T08:09:37;16.85;;;4.97;;
37459;SDS011;23318;50.966;5.284;2022-10-28T08:12:03;15.82;;;6.10;;
37459;SDS011;23318;50.966;5.284;2022-10-28T08:14:30;19.33;;;6.03;;
37459;SDS011;23318;50.966;5.284;2022-10-28T08:16:55;20.10;;;5.53;;
37459;SDS011;23318;50.966;5.284;2022-10-28T08:19:21;20.98;;;6.35;;
37459;SDS011;23318;50.966;5.284;2022-10-28T08:21:47;17.38;;;4.88;;
37459;SDS011;23318;50.966;5.284;2022-10-28T08:24:12;15.43;;;5.20;;
37459;SDS011;23318;50.966;5.284;2022-10-28T08:26:38;15.85;;;5.13;;
37459;SDS011;23318;50.966;5.284;2022-10-28T08:29:04;19.13;;;5.03;;
37459;SDS011;23318;50.966;5.284;2022-10-28T08:31:32;20.02;;;6.22;;
37459;SDS011;23318;50.966;5.284;2022-10-28T08:33:58;16.85;;;5.22;;
37459;SDS011;23318;50.966;5.284;2022-10-28T08:36:24;14.90;;;4.90;;
37459;SDS011;23318;50.966;5.284;2022-10-28T08:38:49;12.35;;;4.85;;
37459;SDS011;23318;50.966;5.284;2022-10-28T08:49:21;20.60;;;6.07;;
37459;SDS011;23318;50.966;5.284;2022-10-28T08:51:54;17.45;;;5.57;;
37459;SDS011;23318;50.966;5.284;2022-10-28T08:54:43;17.70;;;4.70;;
37459;SDS011;23318;50.966;5.284;2022-10-28T09:00:07;13.30;;;4.93;;
37459;SDS011;23318;50.966;5.284;2022-10-28T09:02:45;18.17;;;4.60;;
37459;SDS011;23318;50.966;5.284;2022-10-28T09:05:31;20.92;;;5.03;;
37459;SDS011;23318;50.966;5.284;2022-10-28T09:07:57;18.55;;;4.82;;
37459;SDS011;23318;50.966;5.284;2022-10-28T09:13:27;24.88;;;4.95;;
37459;SDS011;23318;50.966;5.284;2022-10-28T09:16:17;19.77;;;4.65;;
37459;SDS011;23318;50.966;5.284;2022-10-28T09:19:13;15.52;;;4.53;;
37459;SDS011;23318;50.966;5.284;2022-10-28T09:21:46;15.55;;;5.25;;
37459;SDS011;23318;50.966;5.284;2022-10-28T09:24:18;24.38;;;5.63;;
37459;SDS011;23318;50.966;5.284;2022-10-28T09:26:50;17.02;;;4.75;;
37459;SDS011;23318;50.966;5.284;2022-10-28T09:32:16;13.95;;;4.07;;
37459;SDS011;23318;50.966;5.284;2022-10-28T09:37:27;14.13;;;4.68;;
37459;SDS011;23318;50.966;5.284;2022-10-28T09:39:59;10.70;;;4.45;;
37459;SDS011;23318;50.966;5.284;2022-10-28T09:42:45;21.70;;;4.85;;
37459;SDS011;23318;50.966;5.284;2022-10-28T09:45:18;20.42;;;5.25;;
37459;SDS011;23318;50.966;5.284;2022-10-28T09:50:53;13.50;;;4.22;;
37459;SDS011;23318;50.966;5.284;2022-10-28T09:56:11;12.73;;;4.38;;
37459;SDS011;23318;50.966;5.284;2022-10-28T09:58:39;13.18;;;4.43;;
37459;SDS011;23318;50.966;5.284;2022-10-28T10:01:10;21.65;;;5.20;;
37459;SDS011;23318;50.966;5.284;2022-10-28T10:03:36;21.92;;;4.68;;
37459;SDS011;23318;50.966;5.284;2022-10-28T10:06:14;19.35;;;4.10;;
37459;SDS011;23318;50.966;5.284;2022-10-28T10:08:47;19.80;;;4.68;;
37459;SDS011;23318;50.966;5.284;2022-10-28T10:13:50;18.55;;;4.40;;
37459;SDS011;23318;50.966;5.284;2022-10-28T10:16:23;14.65;;;4.15;;
37459;SDS011;23318;50.966;5.284;2022-10-28T10:19:09;14.15;;;3.92;;
37459;SDS011;23318;50.966;5.284;2022-10-28T10:21:42;15.88;;;4.18;;
37459;SDS011;23318;50.966;5.284;2022-10-28T10:24:25;18.55;;;4.57;;
37459;SDS011;23318;50.966;5.284;2022-10-28T10:27:11;16.70;;;4.40;;
37459;SDS011;23318;50.966;5.284;2022-10-28T10:29:46;16.88;;;3.95;;
37459;SDS011;23318;50.966;5.284;2022-10-28T10:32:15;16.75;;;3.97;;
37459;SDS011;23318;50.966;5.284;2022-10-28T10:34:44;15.95;;;3.90;;
37459;SDS011;23318;50.966;5.284;2022-10-28T10:37:19;15.60;;;3.70;;
37459;SDS011;23318;50.966;5.284;2022-10-28T10:39:56;13.18;;;3.63;;
37459;SDS011;23318;50.966;5.284;2022-10-28T10:42:23;18.67;;;4.15;;
37459;SDS011;23318;50.966;5.284;2022-10-28T10:45:01;21.20;;;4.03;;
37459;SDS011;23318;50.966;5.284;2022-10-28T10:47:46;9.57;;;3.20;;
37459;SDS011;23318;50.966;5.284;2022-10-28T10:50:17;17.95;;;3.70;;
37459;SDS011;23318;50.966;5.284;2022-10-28T10:52:52;18.65;;;4.55;;
37459;SDS011;23318;50.966;5.284;2022-10-28T10:55:21;15.95;;;3.95;;
37459;SDS011;23318;50.966;5.284;2022-10-28T10:57:59;12.73;;;3.70;;
37459;SDS011;23318;50.966;5.284;2022-10-28T11:00:30;16.20;;;3.90;;
37459;SDS011;23318;50.966;5.284;2022-10-28T11:02:59;13.32;;;3.65;;
37459;SDS011;23318;50.966;5.284;2022-10-28T11:05:25;11.88;;;4.03;;
37459;SDS011;23318;50.966;5.284;2022-10-28T11:07:52;14.55;;;4.40;;
37459;SDS011;23318;50.966;5.284;2022-10-28T11:10:25;20.25;;;4.32;;
37459;SDS011;23318;50.966;5.284;2022-10-28T11:12:57;12.38;;;3.50;;
37459;SDS011;23318;50.966;5.284;2022-10-28T11:15:28;14.00;;;3.92;;
37459;SDS011;23318;50.966;5.284;2022-10-28T11:20:57;15.32;;;4.35;;
37459;SDS011;23318;50.966;5.284;2022-10-28T11:23:31;16.80;;;3.97;;
37459;SDS011;23318;50.966;5.284;2022-10-28T11:26:02;12.93;;;3.80;;
37459;SDS011;23318;50.966;5.284;2022-10-28T11:45:48;14.95;;;3.80;;
37459;SDS011;23318;50.966;5.284;2022-10-28T12:02:32;17.13;;;4.00;;
37459;SDS011;23318;50.966;5.284;2022-10-28T12:19:20;17.27;;;3.40;;
37459;SDS011;23318;50.966;5.284;2022-10-28T12:24:38;17.40;;;4.20;;
37459;SDS011;23318;50.966;5.284;2022-10-28T12:27:10;13.48;;;3.38;;
37459;SDS011;23318;50.966;5.284;2022-10-28T12:29:41;17.27;;;4.80;;
37459;SDS011;23318;50.966;5.284;2022-10-28T12:32:12;16.98;;;4.10;;
37459;SDS011;23318;50.966;5.284;2022-10-28T12:35:06;15.68;;;4.30;;
37459;SDS011;23318;50.966;5.284;2022-10-28T12:37:44;15.10;;;4.15;;
37459;SDS011;23318;50.966;5.284;2022-10-28T12:40:20;13.27;;;4.35;;
37459;SDS011;23318;50.966;5.284;2022-10-28T12:42:52;13.60;;;3.95;;
37459;SDS011;23318;50.966;5.284;2022-10-28T12:45:23;11.88;;;3.42;;
37459;SDS011;23318;50.966;5.284;2022-10-28T12:50:52;14.95;;;4.15;;
37459;SDS011;23318;50.966;5.284;2022-10-28T12:53:44;21.20;;;4.32;;
37459;SDS011;23318;50.966;5.284;2022-10-28T12:56:33;18.08;;;3.80;;
37459;SDS011;23318;50.966;5.284;2022-10-28T12:59:12;19.50;;;4.78;;
37459;SDS011;23318;50.966;5.284;2022-10-28T13:01:43;14.18;;;4.65;;
37459;SDS011;23318;50.966;5.284;2022-10-28T13:04:11;14.18;;;3.55;;
37459;SDS011;23318;50.966;5.284;2022-10-28T13:12:25;22.85;;;4.45;;
37459;SDS011;23318;50.966;5.284;2022-10-28T13:17:59;16.70;;;3.85;;
37459;SDS011;23318;50.966;5.284;2022-10-28T13:20:47;17.02;;;5.40;;
37459;SDS011;23318;50.966;5.284;2022-10-28T13:26:19;17.75;;;4.05;;
37459;SDS011;23318;50.966;5.284;2022-10-28T13:31:16;18.40;;;4.90;;
37459;SDS011;23318;50.966;5.284;2022-10-28T13:33:54;14.80;;;4.43;;
37459;SDS011;23318;50.966;5.284;2022-10-28T13:36:29;15.45;;;3.63;;
37459;SDS011;23318;50.966;5.284;2022-10-28T13:39:02;22.25;;;4.57;;
37459;SDS011;23318;50.966;5.284;2022-10-28T13:51:58;17.58;;;4.32;;
37459;SDS011;23318;50.966;5.284;2022-10-28T13:54:25;13.38;;;3.67;;
37459;SDS011;23318;50.966;5.284;2022-10-28T13:56:54;21.05;;;4.18;;
37459;SDS011;23318;50.966;5.284;2022-10-28T13:59:28;10.93;;;4.10;;
37459;SDS011;23318;50.966;5.284;2022-10-28T14:02:01;16.10;;;3.90;;
37459;SDS011;23318;50.966;5.284;2022-10-28T14:04:38;15.98;;;4.20;;
37459;SDS011;23318;50.966;5.284;2022-10-28T14:09:35;14.77;;;3.65;;
37459;SDS011;23318;50.966;5.284;2022-10-28T14:12:03;12.02;;;4.03;;
37459;SDS011;23318;50.966;5.284;2022-10-28T14:17:35;18.05;;;4.35;;
37459;SDS011;23318;50.966;5.284;2022-10-28T14:20:03;17.05;;;3.58;;
37459;SDS011;23318;50.966;5.284;2022-10-28T14:22:50;21.67;;;4.45;;
37459;SDS011;23318;50.966;5.284;2022-10-28T14:41:37;21.35;;;4.70;;
37459;SDS011;23318;50.966;5.284;2022-10-28T14:44:09;11.38;;;3.60;;
37459;SDS011;23318;50.966;5.284;2022-10-28T14:49:20;14.52;;;3.92;;
37459;SDS011;23318;50.966;5.284;2022-10-28T14:51:54;15.85;;;4.00;;
37459;SDS011;23318;50.966;5.284;2022-10-28T14:54:43;23.42;;;4.95;;
37459;SDS011;23318;50.966;5.284;2022-10-28T14:57:10;14.68;;;4.13;;
37459;SDS011;23318;50.966;5.284;2022-10-28T14:59:36;19.33;;;4.25;;
37459;SDS011;23318;50.966;5.284;2022-10-28T15:02:27;11.38;;;3.55;;
37459;SDS011;23318;50.966;5.284;2022-10-28T15:04:59;15.88;;;3.78;;
37459;SDS011;23318;50.966;5.284;2022-10-28T15:07:28;15.82;;;3.90;;
37459;SDS011;23318;50.966;5.284;2022-10-28T15:09:55;14.63;;;3.75;;
37459;SDS011;23318;50.966;5.284;2022-10-28T15:12:22;13.73;;;3.97;;
37459;SDS011;23318;50.966;5.284;2022-10-28T15:14:54;15.63;;;4.70;;
37459;SDS011;23318;50.966;5.284;2022-10-28T15:19:51;18.63;;;4.25;;
37459;SDS011;23318;50.966;5.284;2022-10-28T15:22:19;19.77;;;4.22;;
37459;SDS011;23318;50.966;5.284;2022-10-28T15:24:58;14.63;;;4.30;;
37459;SDS011;23318;50.966;5.284;2022-10-28T15:27:27;18.63;;;3.90;;
37459;SDS011;23318;50.966;5.284;2022-10-28T15:29:54;14.13;;;3.47;;
37459;SDS011;23318;50.966;5.284;2022-10-28T15:34:47;21.77;;;4.50;;
37459;SDS011;23318;50.966;5.284;2022-10-28T15:37:16;14.82;;;3.90;;
37459;SDS011;23318;50.966;5.284;2022-10-28T15:39:43;19.73;;;4.88;;
37459;SDS011;23318;50.966;5.284;2022-10-28T15:42:28;29.50;;;4.10;;
37459;SDS011;23318;50.966;5.284;2022-10-28T15:44:56;15.88;;;3.97;;
37459;SDS011;23318;50.966;5.284;2022-10-28T15:47:27;17.75;;;4.30;;
37459;SDS011;23318;50.966;5.284;2022-10-28T15:50:39;16.95;;;5.00;;
37459;SDS011;23318;50.966;5.284;2022-10-28T15:52:50;16.65;;;4.50;;
37459;SDS011;23318;50.966;5.284;2022-10-28T16:00:17;11.90;;;4.20;;
37459;SDS011;23318;50.966;5.284;2022-10-28T16:02:52;30.27;;;5.75;;
37459;SDS011;23318;50.966;5.284;2022-10-28T16:07:57;18.52;;;5.88;;
37459;SDS011;23318;50.966;5.284;2022-10-28T16:10:35;17.10;;;4.88;;
37459;SDS011;23318;50.966;5.284;2022-10-28T16:13:21;23.38;;;5.95;;
37459;SDS011;23318;50.966;5.284;2022-10-28T16:15:56;23.13;;;5.10;;
37459;SDS011;23318;50.966;5.284;2022-10-28T16:18:43;15.77;;;4.53;;
37459;SDS011;23318;50.966;5.284;2022-10-28T16:21:14;16.08;;;5.07;;
37459;SDS011;23318;50.966;5.284;2022-10-28T16:23:43;23.92;;;5.43;;
37459;SDS011;23318;50.966;5.284;2022-10-28T16:26:15;12.75;;;4.45;;
37459;SDS011;23318;50.966;5.284;2022-10-28T16:28:41;21.38;;;5.40;;
37459;SDS011;23318;50.966;5.284;2022-10-28T16:31:07;14.05;;;4.90;;
37459;SDS011;23318;50.966;5.284;2022-10-28T16:33:38;20.25;;;5.45;;
37459;SDS011;23318;50.966;5.284;2022-10-28T16:36:03;27.10;;;5.57;;
37459;SDS011;23318;50.966;5.284;2022-10-28T16:38:29;23.98;;;5.35;;
37459;SDS011;23318;50.966;5.284;2022-10-28T16:40:56;19.55;;;5.55;;
37459;SDS011;23318;50.966;5.284;2022-10-28T16:43:23;13.82;;;4.68;;
37459;SDS011;23318;50.966;5.284;2022-10-28T16:45:50;21.58;;;5.00;;
37459;SDS011;23318;50.966;5.284;2022-10-28T16:48:18;21.50;;;6.50;;
37459;SDS011;23318;50.966;5.284;2022-10-28T16:50:48;13.93;;;4.57;;
37459;SDS011;23318;50.966;5.284;2022-10-28T16:53:16;14.57;;;5.13;;
37459;SDS011;23318;50.966;5.284;2022-10-28T16:55:42;20.95;;;5.13;;
37459;SDS011;23318;50.966;5.284;2022-10-28T16:58:08;15.48;;;5.50;;
37459;SDS011;23318;50.966;5.284;2022-10-28T17:00:34;16.90;;;5.57;;
37459;SDS011;23318;50.966;5.284;2022-10-28T17:03:01;17.27;;;5.18;;
37459;SDS011;23318;50.966;5.284;2022-10-28T17:05:26;17.83;;;5.18;;
37459;SDS011;23318;50.966;5.284;2022-10-28T17:07:52;22.52;;;5.88;;
37459;SDS011;23318;50.966;5.284;2022-10-28T17:10:19;19.73;;;4.97;;
37459;SDS011;23318;50.966;5.284;2022-10-28T17:12:47;22.48;;;6.13;;
37459;SDS011;23318;50.966;5.284;2022-10-28T17:15:13;26.15;;;6.25;;
37459;SDS011;23318;50.966;5.284;2022-10-28T17:17:39;26.45;;;6.57;;
37459;SDS011;23318;50.966;5.284;2022-10-28T17:20:04;25.95;;;6.15;;
37459;SDS011;23318;50.966;5.284;2022-10-28T17:22:31;24.50;;;6.07;;
37459;SDS011;23318;50.966;5.284;2022-10-28T17:24:57;19.35;;;6.65;;
37459;SDS011;23318;50.966;5.284;2022-10-28T17:27:22;19.55;;;5.90;;
37459;SDS011;23318;50.966;5.284;2022-10-28T17:29:48;27.65;;;6.38;;
37459;SDS011;23318;50.966;5.284;2022-10-28T17:32:13;26.45;;;7.07;;
37459;SDS011;23318;50.966;5.284;2022-10-28T17:34:39;17.63;;;6.80;;
37459;SDS011;23318;50.966;5.284;2022-10-28T17:37:05;26.08;;;6.28;;
37459;SDS011;23318;50.966;5.284;2022-10-28T17:39:31;19.52;;;6.60;;
37459;SDS011;23318;50.966;5.284;2022-10-28T17:41:58;17.15;;;6.00;;
37459;SDS011;23318;50.966;5.284;2022-10-28T17:44:23;26.35;;;6.07;;
37459;SDS011;23318;50.966;5.284;2022-10-28T17:46:49;19.63;;;6.13;;
37459;SDS011;23318;50.966;5.284;2022-10-28T17:49:15;22.73;;;5.90;;
37459;SDS011;23318;50.966;5.284;2022-10-28T17:51:42;27.48;;;6.95;;
37459;SDS011;23318;50.966;5.284;2022-10-28T17:54:08;25.00;;;6.85;;